Nuremberg Airport

Airport
ICAO code: 
EDDN
IATA Code: 
NUE
Summary
ICAO Region: 
EUR
Territory: 
Location: 
Nuremberg, Bavaria, Germany,
Serving: 
Nuremberg
Elevation: 
1046 ft
Coordinates: 
Aerial View: 
49° 29' 51.266" N, 11° 4' 36.653" E
Airport WX: 
Fog
Metar
Observation
EDDN 270250Z 13009KT 090V150 9999 BKN045 02/M01 Q0989
Station
Nuernberg
Date/Time
2021-11-27 02:50:00
Wind direction
130°
Wind speed
09 kts
Lowest cloud amount
broken clouds
Temperature
2°C
Dew point
-1°C
Humidity
80%
QNH
989 hPa
Weather condition
n/a

Description

International airport 5 km north of the city centre.

Climatology

Temperate Marine climate/Oceanic climate (Köppen climate classification Cfb). Moderately cool summer and comparatively warm winter with a temperature range of only 14°C. Prevailing south-westerly winds from the Atlantic Ocean.

Runways

Designator Length Width Surface Rops
10/28 2700 45 ASP Yes/Yes
Airport map: 
Aerial View: 

SKYbrary Partners:

Safety knowledge contributed by: